sensor_id;sensor_type;location;lat;lon;timestamp;temperature;humidity
8593;DHT22;4334;49.982;8.398;2023-04-29T00:02:15;15.80;99.90
8593;DHT22;4334;49.982;8.398;2023-04-29T00:04:42;12.10;99.90
8593;DHT22;4334;49.982;8.398;2023-04-29T00:07:09;12.00;99.90
8593;DHT22;4334;49.982;8.398;2023-04-29T00:09:41;12.00;99.90
8593;DHT22;4334;49.982;8.398;2023-04-29T00:12:07;11.90;99.90
8593;DHT22;4334;49.982;8.398;2023-04-29T00:17:02;15.30;99.90
8593;DHT22;4334;49.982;8.398;2023-04-29T00:19:29;11.90;99.90
8593;DHT22;4334;49.982;8.398;2023-04-29T00:21:56;11.90;99.90
8593;DHT22;4334;49.982;8.398;2023-04-29T00:24:23;11.80;99.90
8593;DHT22;4334;49.982;8.398;2023-04-29T00:26:51;11.90;99.90
8593;DHT22;4334;49.982;8.398;2023-04-29T00:29:17;11.90;99.90
8593;DHT22;4334;49.982;8.398;2023-04-29T00:31:45;11.80;99.90
8593;DHT22;4334;49.982;8.398;2023-04-29T00:34:11;11.70;99.90
8593;DHT22;4334;49.982;8.398;2023-04-29T00:36:38;14.90;99.90
8593;DHT22;4334;49.982;8.398;2023-04-29T00:39:05;11.80;99.90
8593;DHT22;4334;49.982;8.398;2023-04-29T00:41:35;11.80;99.90
8593;DHT22;4334;49.982;8.398;2023-04-29T00:44:03;11.70;99.90
8593;DHT22;4334;49.982;8.398;2023-04-29T00:48:57;11.70;99.90
8593;DHT22;4334;49.982;8.398;2023-04-29T00:51:25;11.70;99.90
8593;DHT22;4334;49.982;8.398;2023-04-29T00:53:52;11.80;99.90
8593;DHT22;4334;49.982;8.398;2023-04-29T00:56:19;11.80;99.90
8593;DHT22;4334;49.982;8.398;2023-04-29T00:58:47;11.80;99.90
8593;DHT22;4334;49.982;8.398;2023-04-29T01:01:17;13.60;99.90
8593;DHT22;4334;49.982;8.398;2023-04-29T01:03:44;11.30;99.90
8593;DHT22;4334;49.982;8.398;2023-04-29T01:06:19;12.10;99.90
8593;DHT22;4334;49.982;8.398;2023-04-29T01:08:59;12.20;99.90
8593;DHT22;4334;49.982;8.398;2023-04-29T01:11:34;12.20;99.90
8593;DHT22;4334;49.982;8.398;2023-04-29T01:14:02;12.10;99.90
8593;DHT22;4334;49.982;8.398;2023-04-29T01:16:36;12.20;99.90
8593;DHT22;4334;49.982;8.398;2023-04-29T01:19:14;12.20;99.90
8593;DHT22;4334;49.982;8.398;2023-04-29T01:21:45;12.20;99.90
8593;DHT22;4334;49.982;8.398;2023-04-29T01:24:15;10.20;99.90
8593;DHT22;4334;49.982;8.398;2023-04-29T01:26:49;12.10;99.90
8593;DHT22;4334;49.982;8.398;2023-04-29T01:29:24;15.30;99.90
8593;DHT22;4334;49.982;8.398;2023-04-29T01:32:04;11.80;99.90
8593;DHT22;4334;49.982;8.398;2023-04-29T01:34:38;11.70;99.90
8593;DHT22;4334;49.982;8.398;2023-04-29T01:37:13;11.60;99.90
8593;DHT22;4334;49.982;8.398;2023-04-29T01:39:50;11.40;99.90
8593;DHT22;4334;49.982;8.398;2023-04-29T01:42:24;11.40;99.90
8593;DHT22;4334;49.982;8.398;2023-04-29T01:44:56;11.20;99.90
8593;DHT22;4334;49.982;8.398;2023-04-29T01:47:24;11.10;99.90
8593;DHT22;4334;49.982;8.398;2023-04-29T01:49:51;11.00;99.90
8593;DHT22;4334;49.982;8.398;2023-04-29T01:52:18;10.90;99.90
8593;DHT22;4334;49.982;8.398;2023-04-29T01:54:47;11.00;99.90
8593;DHT22;4334;49.982;8.398;2023-04-29T01:57:13;13.80;99.90
8593;DHT22;4334;49.982;8.398;2023-04-29T01:59:41;10.90;99.90
8593;DHT22;4334;49.982;8.398;2023-04-29T02:02:08;11.00;99.90
8593;DHT22;4334;49.982;8.398;2023-04-29T02:04:34;11.00;99.90
8593;DHT22;4334;49.982;8.398;2023-04-29T02:07:01;11.20;99.90
8593;DHT22;4334;49.982;8.398;2023-04-29T02:09:28;13.00;99.90
8593;DHT22;4334;49.982;8.398;2023-04-29T02:11:56;11.30;99.90
8593;DHT22;4334;49.982;8.398;2023-04-29T02:14:23;11.40;99.90
8593;DHT22;4334;49.982;8.398;2023-04-29T02:16:50;11.50;99.90
8593;DHT22;4334;49.982;8.398;2023-04-29T02:19:16;11.70;99.90
8593;DHT22;4334;49.982;8.398;2023-04-29T02:21:43;11.80;99.90
8593;DHT22;4334;49.982;8.398;2023-04-29T02:24:10;11.90;99.90
8593;DHT22;4334;49.982;8.398;2023-04-29T02:26:36;12.00;99.90
8593;DHT22;4334;49.982;8.398;2023-04-29T02:29:04;13.80;99.90
8593;DHT22;4334;49.982;8.398;2023-04-29T02:31:31;12.00;99.90
8593;DHT22;4334;49.982;8.398;2023-04-29T02:33:58;12.00;99.90
8593;DHT22;4334;49.982;8.398;2023-04-29T02:36:25;16.30;99.90
8593;DHT22;4334;49.982;8.398;2023-04-29T02:38:52;11.80;99.90
8593;DHT22;4334;49.982;8.398;2023-04-29T02:41:20;11.80;99.90
8593;DHT22;4334;49.982;8.398;2023-04-29T02:43:47;11.70;99.90
8593;DHT22;4334;49.982;8.398;2023-04-29T02:46:16;11.70;99.90
8593;DHT22;4334;49.982;8.398;2023-04-29T02:48:43;11.70;99.90
8593;DHT22;4334;49.982;8.398;2023-04-29T02:51:10;11.80;99.90
8593;DHT22;4334;49.982;8.398;2023-04-29T02:53:36;12.50;99.90
8593;DHT22;4334;49.982;8.398;2023-04-29T02:56:03;11.70;99.90
8593;DHT22;4334;49.982;8.398;2023-04-29T02:58:31;11.70;99.90
8593;DHT22;4334;49.982;8.398;2023-04-29T03:00:57;11.70;99.90
8593;DHT22;4334;49.982;8.398;2023-04-29T03:03:25;11.70;99.90
8593;DHT22;4334;49.982;8.398;2023-04-29T03:05:52;11.60;99.90
8593;DHT22;4334;49.982;8.398;2023-04-29T03:08:19;11.60;99.90
8593;DHT22;4334;49.982;8.398;2023-04-29T03:10:46;11.70;99.90
8593;DHT22;4334;49.982;8.398;2023-04-29T03:13:13;11.70;99.90
8593;DHT22;4334;49.982;8.398;2023-04-29T03:15:39;11.90;99.90
8593;DHT22;4334;49.982;8.398;2023-04-29T03:18:08;11.90;99.90
8593;DHT22;4334;49.982;8.398;2023-04-29T03:20:36;11.90;99.90
8593;DHT22;4334;49.982;8.398;2023-04-29T03:23:03;11.90;99.90
8593;DHT22;4334;49.982;8.398;2023-04-29T03:25:30;11.90;99.90
8593;DHT22;4334;49.982;8.398;2023-04-29T03:27:57;11.90;99.90
8593;DHT22;4334;49.982;8.398;2023-04-29T03:30:23;11.90;99.90
8593;DHT22;4334;49.982;8.398;2023-04-29T03:32:50;11.90;99.90
8593;DHT22;4334;49.982;8.398;2023-04-29T03:35:17;11.90;99.90
8593;DHT22;4334;49.982;8.398;2023-04-29T03:37:45;11.90;99.90
8593;DHT22;4334;49.982;8.398;2023-04-29T03:40:12;12.00;99.90
8593;DHT22;4334;49.982;8.398;2023-04-29T03:42:39;12.00;99.90
8593;DHT22;4334;49.982;8.398;2023-04-29T03:45:07;12.10;99.90
8593;DHT22;4334;49.982;8.398;2023-04-29T03:47:35;12.10;99.90
8593;DHT22;4334;49.982;8.398;2023-04-29T03:50:02;12.10;99.90
8593;DHT22;4334;49.982;8.398;2023-04-29T03:52:29;12.10;99.90
8593;DHT22;4334;49.982;8.398;2023-04-29T03:54:57;12.20;99.90
8593;DHT22;4334;49.982;8.398;2023-04-29T03:57:24;16.30;99.90
8593;DHT22;4334;49.982;8.398;2023-04-29T03:59:50;12.20;99.90
8593;DHT22;4334;49.982;8.398;2023-04-29T04:02:17;12.20;99.90
8593;DHT22;4334;49.982;8.398;2023-04-29T04:04:44;16.50;99.90
8593;DHT22;4334;49.982;8.398;2023-04-29T04:07:10;12.10;99.90
8593;DHT22;4334;49.982;8.398;2023-04-29T04:09:37;12.30;99.90
8593;DHT22;4334;49.982;8.398;2023-04-29T04:12:05;12.20;99.90
8593;DHT22;4334;49.982;8.398;2023-04-29T04:14:32;12.40;99.90
8593;DHT22;4334;49.982;8.398;2023-04-29T04:16:59;12.40;99.90
8593;DHT22;4334;49.982;8.398;2023-04-29T04:19:25;12.40;99.90
8593;DHT22;4334;49.982;8.398;2023-04-29T04:21:53;12.50;99.90
8593;DHT22;4334;49.982;8.398;2023-04-29T04:24:20;13.90;99.90
8593;DHT22;4334;49.982;8.398;2023-04-29T04:26:47;12.60;99.90
8593;DHT22;4334;49.982;8.398;2023-04-29T04:29:15;12.60;99.90
8593;DHT22;4334;49.982;8.398;2023-04-29T04:31:41;12.70;99.90
8593;DHT22;4334;49.982;8.398;2023-04-29T04:34:08;12.70;99.90
8593;DHT22;4334;49.982;8.398;2023-04-29T04:36:35;12.60;99.90
8593;DHT22;4334;49.982;8.398;2023-04-29T04:39:02;12.70;99.90
8593;DHT22;4334;49.982;8.398;2023-04-29T04:41:29;12.70;99.90
8593;DHT22;4334;49.982;8.398;2023-04-29T04:43:56;12.70;99.90
8593;DHT22;4334;49.982;8.398;2023-04-29T04:46:24;12.70;99.90
8593;DHT22;4334;49.982;8.398;2023-04-29T04:48:51;12.70;99.90
8593;DHT22;4334;49.982;8.398;2023-04-29T04:51:18;12.60;99.90
8593;DHT22;4334;49.982;8.398;2023-04-29T04:53:45;12.60;99.90
8593;DHT22;4334;49.982;8.398;2023-04-29T04:56:11;12.60;99.90
8593;DHT22;4334;49.982;8.398;2023-04-29T04:58:38;12.60;99.90
8593;DHT22;4334;49.982;8.398;2023-04-29T05:01:05;12.50;99.90
8593;DHT22;4334;49.982;8.398;2023-04-29T05:03:33;13.80;99.90
8593;DHT22;4334;49.982;8.398;2023-04-29T05:06:00;15.80;99.90
8593;DHT22;4334;49.982;8.398;2023-04-29T05:08:27;12.50;99.90
8593;DHT22;4334;49.982;8.398;2023-04-29T05:10:53;12.50;99.90
8593;DHT22;4334;49.982;8.398;2023-04-29T05:13:20;12.60;99.90
8593;DHT22;4334;49.982;8.398;2023-04-29T05:15:47;12.70;99.90
8593;DHT22;4334;49.982;8.398;2023-04-29T05:18:14;12.70;99.90
8593;DHT22;4334;49.982;8.398;2023-04-29T05:20:42;12.70;99.90
8593;DHT22;4334;49.982;8.398;2023-04-29T05:23:09;12.80;99.90
8593;DHT22;4334;49.982;8.398;2023-04-29T05:25:35;12.90;99.90
8593;DHT22;4334;49.982;8.398;2023-04-29T05:28:02;13.00;99.90
8593;DHT22;4334;49.982;8.398;2023-04-29T05:30:30;13.10;99.90
8593;DHT22;4334;49.982;8.398;2023-04-29T05:32:56;13.00;99.90
8593;DHT22;4334;49.982;8.398;2023-04-29T05:35:23;13.20;99.90
8593;DHT22;4334;49.982;8.398;2023-04-29T05:37:52;13.60;99.90
8593;DHT22;4334;49.982;8.398;2023-04-29T05:40:18;13.30;99.90
8593;DHT22;4334;49.982;8.398;2023-04-29T05:42:47;13.70;99.90
8593;DHT22;4334;49.982;8.398;2023-04-29T05:45:14;13.40;99.90
8593;DHT22;4334;49.982;8.398;2023-04-29T05:47:41;13.40;99.90
8593;DHT22;4334;49.982;8.398;2023-04-29T05:50:08;13.50;99.90
8593;DHT22;4334;49.982;8.398;2023-04-29T05:52:36;13.60;99.90
8593;DHT22;4334;49.982;8.398;2023-04-29T05:55:04;13.60;99.90
8593;DHT22;4334;49.982;8.398;2023-04-29T05:57:31;13.60;99.90
8593;DHT22;4334;49.982;8.398;2023-04-29T05:59:58;13.60;99.90
8593;DHT22;4334;49.982;8.398;2023-04-29T06:02:25;13.60;99.90
8593;DHT22;4334;49.982;8.398;2023-04-29T06:04:52;13.60;99.90
8593;DHT22;4334;49.982;8.398;2023-04-29T06:07:18;13.60;99.90
8593;DHT22;4334;49.982;8.398;2023-04-29T06:09:45;13.60;99.90
8593;DHT22;4334;49.982;8.398;2023-04-29T06:12:13;13.70;99.90
8593;DHT22;4334;49.982;8.398;2023-04-29T06:14:40;13.60;99.90
8593;DHT22;4334;49.982;8.398;2023-04-29T06:17:07;14.00;99.90
8593;DHT22;4334;49.982;8.398;2023-04-29T06:19:34;15.00;99.90
8593;DHT22;4334;49.982;8.398;2023-04-29T06:22:01;14.80;99.90
8593;DHT22;4334;49.982;8.398;2023-04-29T06:24:27;14.40;99.90
8593;DHT22;4334;49.982;8.398;2023-04-29T06:26:54;14.20;99.90
8593;DHT22;4334;49.982;8.398;2023-04-29T06:29:22;14.10;99.90
8593;DHT22;4334;49.982;8.398;2023-04-29T06:31:49;14.20;99.90
8593;DHT22;4334;49.982;8.398;2023-04-29T06:34:15;14.50;99.90
8593;DHT22;4334;49.982;8.398;2023-04-29T06:36:42;14.60;99.90
8593;DHT22;4334;49.982;8.398;2023-04-29T06:39:09;14.40;99.90
8593;DHT22;4334;49.982;8.398;2023-04-29T06:41:35;14.20;99.90
8593;DHT22;4334;49.982;8.398;2023-04-29T06:44:02;14.20;99.90
8593;DHT22;4334;49.982;8.398;2023-04-29T06:46:30;14.10;99.90
8593;DHT22;4334;49.982;8.398;2023-04-29T06:48:58;14.20;99.90
8593;DHT22;4334;49.982;8.398;2023-04-29T06:51:25;14.10;99.90
8593;DHT22;4334;49.982;8.398;2023-04-29T06:53:52;14.30;99.90
8593;DHT22;4334;49.982;8.398;2023-04-29T06:56:19;14.60;99.90
8593;DHT22;4334;49.982;8.398;2023-04-29T06:58:46;14.70;99.90
8593;DHT22;4334;49.982;8.398;2023-04-29T07:03:41;14.60;99.90
8593;DHT22;4334;49.982;8.398;2023-04-29T07:06:09;14.50;99.90
8593;DHT22;4334;49.982;8.398;2023-04-29T07:08:35;14.40;99.90
8593;DHT22;4334;49.982;8.398;2023-04-29T07:11:02;14.30;99.90
8593;DHT22;4334;49.982;8.398;2023-04-29T07:13:29;14.20;99.90
8593;DHT22;4334;49.982;8.398;2023-04-29T07:15:56;14.30;99.90
8593;DHT22;4334;49.982;8.398;2023-04-29T07:18:22;14.30;99.90
8593;DHT22;4334;49.982;8.398;2023-04-29T07:20:50;14.30;99.90
8593;DHT22;4334;49.982;8.398;2023-04-29T07:23:17;14.30;99.90
8593;DHT22;4334;49.982;8.398;2023-04-29T07:25:44;14.00;99.90
8593;DHT22;4334;49.982;8.398;2023-04-29T07:28:11;14.10;99.90
8593;DHT22;4334;49.982;8.398;2023-04-29T07:30:38;14.10;99.90
8593;DHT22;4334;49.982;8.398;2023-04-29T07:33:04;14.00;99.90
8593;DHT22;4334;49.982;8.398;2023-04-29T07:35:31;13.90;99.90
8593;DHT22;4334;49.982;8.398;2023-04-29T07:37:59;17.30;99.90
8593;DHT22;4334;49.982;8.398;2023-04-29T07:40:26;14.00;99.90
8593;DHT22;4334;49.982;8.398;2023-04-29T07:42:53;18.30;99.90
8593;DHT22;4334;49.982;8.398;2023-04-29T07:45:20;14.20;99.90
8593;DHT22;4334;49.982;8.398;2023-04-29T07:47:46;14.20;99.90
8593;DHT22;4334;49.982;8.398;2023-04-29T07:50:13;14.20;99.90
8593;DHT22;4334;49.982;8.398;2023-04-29T07:52:40;14.20;99.90
8593;DHT22;4334;49.982;8.398;2023-04-29T07:55:08;14.20;99.90
8593;DHT22;4334;49.982;8.398;2023-04-29T07:57:35;14.10;99.90
8593;DHT22;4334;49.982;8.398;2023-04-29T08:00:03;15.60;99.90
8593;DHT22;4334;49.982;8.398;2023-04-29T08:02:30;14.10;99.90
8593;DHT22;4334;49.982;8.398;2023-04-29T08:04:57;18.00;99.90
8593;DHT22;4334;49.982;8.398;2023-04-29T08:07:25;14.00;99.90
8593;DHT22;4334;49.982;8.398;2023-04-29T08:09:51;14.10;99.90
8593;DHT22;4334;49.982;8.398;2023-04-29T08:12:19;14.00;99.90
8593;DHT22;4334;49.982;8.398;2023-04-29T08:14:46;14.10;99.90
8593;DHT22;4334;49.982;8.398;2023-04-29T08:17:13;14.00;99.90
8593;DHT22;4334;49.982;8.398;2023-04-29T08:19:39;13.80;99.90
8593;DHT22;4334;49.982;8.398;2023-04-29T08:22:06;17.70;99.90
8593;DHT22;4334;49.982;8.398;2023-04-29T08:24:35;16.60;99.90
8593;DHT22;4334;49.982;8.398;2023-04-29T08:27:02;13.70;99.90
8593;DHT22;4334;49.982;8.398;2023-04-29T08:29:31;13.80;99.90
8593;DHT22;4334;49.982;8.398;2023-04-29T08:31:58;13.80;99.90
8593;DHT22;4334;49.982;8.398;2023-04-29T08:34:25;13.70;99.90
8593;DHT22;4334;49.982;8.398;2023-04-29T08:36:52;13.70;99.90
8593;DHT22;4334;49.982;8.398;2023-04-29T08:39:19;13.70;99.90
8593;DHT22;4334;49.982;8.398;2023-04-29T08:41:45;18.00;99.90
8593;DHT22;4334;49.982;8.398;2023-04-29T08:44:15;13.60;99.90
8593;DHT22;4334;49.982;8.398;2023-04-29T08:46:44;13.60;99.90
8593;DHT22;4334;49.982;8.398;2023-04-29T08:49:11;13.80;99.90
8593;DHT22;4334;49.982;8.398;2023-04-29T08:51:38;17.90;99.90
8593;DHT22;4334;49.982;8.398;2023-04-29T08:54:05;13.90;99.90
8593;DHT22;4334;49.982;8.398;2023-04-29T08:56:32;14.00;99.90
8593;DHT22;4334;49.982;8.398;2023-04-29T08:59:01;14.10;99.90
8593;DHT22;4334;49.982;8.398;2023-04-29T09:01:29;14.00;99.90
8593;DHT22;4334;49.982;8.398;2023-04-29T09:04:06;14.10;99.90
8593;DHT22;4334;49.982;8.398;2023-04-29T09:06:33;14.10;99.90
8593;DHT22;4334;49.982;8.398;2023-04-29T09:09:02;14.10;99.90
8593;DHT22;4334;49.982;8.398;2023-04-29T09:11:30;14.00;99.90
8593;DHT22;4334;49.982;8.398;2023-04-29T09:14:01;14.00;99.90
8593;DHT22;4334;49.982;8.398;2023-04-29T09:16:28;14.10;99.90
8593;DHT22;4334;49.982;8.398;2023-04-29T09:18:55;18.30;99.90
8593;DHT22;4334;49.982;8.398;2023-04-29T09:21:25;15.60;99.90
8593;DHT22;4334;49.982;8.398;2023-04-29T09:23:54;14.30;99.90
8593;DHT22;4334;49.982;8.398;2023-04-29T09:26:21;14.20;99.90
8593;DHT22;4334;49.982;8.398;2023-04-29T09:29:05;14.10;99.90
8593;DHT22;4334;49.982;8.398;2023-04-29T09:31:33;13.90;99.90
8593;DHT22;4334;49.982;8.398;2023-04-29T09:36:39;14.00;99.90
8593;DHT22;4334;49.982;8.398;2023-04-29T09:39:06;14.00;99.90
8593;DHT22;4334;49.982;8.398;2023-04-29T09:41:38;13.90;99.90
8593;DHT22;4334;49.982;8.398;2023-04-29T09:44:05;13.80;99.90
8593;DHT22;4334;49.982;8.398;2023-04-29T09:46:32;13.90;99.90
8593;DHT22;4334;49.982;8.398;2023-04-29T09:49:01;14.10;99.90
8593;DHT22;4334;49.982;8.398;2023-04-29T09:51:29;14.10;99.90
8593;DHT22;4334;49.982;8.398;2023-04-29T09:53:59;14.10;99.90
8593;DHT22;4334;49.982;8.398;2023-04-29T09:56:27;13.90;99.90
8593;DHT22;4334;49.982;8.398;2023-04-29T09:58:55;14.00;99.90
8593;DHT22;4334;49.982;8.398;2023-04-29T10:01:24;14.10;99.90
8593;DHT22;4334;49.982;8.398;2023-04-29T10:03:54;14.20;99.90
8593;DHT22;4334;49.982;8.398;2023-04-29T10:06:21;14.20;99.90
8593;DHT22;4334;49.982;8.398;2023-04-29T10:08:49;14.20;99.90
8593;DHT22;4334;49.982;8.398;2023-04-29T10:11:18;14.30;99.90
8593;DHT22;4334;49.982;8.398;2023-04-29T10:13:47;14.40;99.90
8593;DHT22;4334;49.982;8.398;2023-04-29T10:16:24;14.40;99.90
8593;DHT22;4334;49.982;8.398;2023-04-29T10:18:54;14.30;99.90
8593;DHT22;4334;49.982;8.398;2023-04-29T10:21:26;14.30;99.90
8593;DHT22;4334;49.982;8.398;2023-04-29T10:23:53;14.50;99.90
8593;DHT22;4334;49.982;8.398;2023-04-29T10:26:25;14.50;99.90
8593;DHT22;4334;49.982;8.398;2023-04-29T10:28:54;14.50;99.90
8593;DHT22;4334;49.982;8.398;2023-04-29T10:31:21;15.10;99.90
8593;DHT22;4334;49.982;8.398;2023-04-29T10:33:51;14.60;99.90
8593;DHT22;4334;49.982;8.398;2023-04-29T10:36:20;14.50;99.90
8593;DHT22;4334;49.982;8.398;2023-04-29T10:38:50;14.40;99.90
8593;DHT22;4334;49.982;8.398;2023-04-29T10:41:20;14.30;99.90
8593;DHT22;4334;49.982;8.398;2023-04-29T10:43:51;13.90;99.90
8593;DHT22;4334;49.982;8.398;2023-04-29T10:46:19;13.90;99.90
8593;DHT22;4334;49.982;8.398;2023-04-29T10:48:47;14.00;99.90
8593;DHT22;4334;49.982;8.398;2023-04-29T10:51:28;15.30;99.90
8593;DHT22;4334;49.982;8.398;2023-04-29T10:54:00;14.10;99.90
8593;DHT22;4334;49.982;8.398;2023-04-29T10:56:37;14.00;99.90
8593;DHT22;4334;49.982;8.398;2023-04-29T10:59:09;14.00;99.90
8593;DHT22;4334;49.982;8.398;2023-04-29T11:01:42;14.10;99.90
8593;DHT22;4334;49.982;8.398;2023-04-29T11:04:09;14.20;99.90
8593;DHT22;4334;49.982;8.398;2023-04-29T11:06:41;14.50;99.90
8593;DHT22;4334;49.982;8.398;2023-04-29T11:09:11;16.50;99.90
8593;DHT22;4334;49.982;8.398;2023-04-29T11:11:46;14.70;99.90
8593;DHT22;4334;49.982;8.398;2023-04-29T11:14:23;15.10;99.90
8593;DHT22;4334;49.982;8.398;2023-04-29T11:16:52;15.30;99.90
8593;DHT22;4334;49.982;8.398;2023-04-29T11:19:19;15.20;99.90
8593;DHT22;4334;49.982;8.398;2023-04-29T11:21:46;15.10;99.90
8593;DHT22;4334;49.982;8.398;2023-04-29T11:24:13;15.60;99.90
8593;DHT22;4334;49.982;8.398;2023-04-29T11:26:43;15.30;99.90
8593;DHT22;4334;49.982;8.398;2023-04-29T11:29:11;15.50;99.90
8593;DHT22;4334;49.982;8.398;2023-04-29T11:31:39;15.70;99.90
8593;DHT22;4334;49.982;8.398;2023-04-29T11:34:06;16.00;99.90
8593;DHT22;4334;49.982;8.398;2023-04-29T11:36:33;16.20;99.90
8593;DHT22;4334;49.982;8.398;2023-04-29T11:39:00;16.40;99.90
8593;DHT22;4334;49.982;8.398;2023-04-29T11:41:28;16.40;99.90
8593;DHT22;4334;49.982;8.398;2023-04-29T11:43:56;16.60;99.90
8593;DHT22;4334;49.982;8.398;2023-04-29T11:46:24;17.00;99.90
8593;DHT22;4334;49.982;8.398;2023-04-29T11:48:53;17.20;99.90
8593;DHT22;4334;49.982;8.398;2023-04-29T11:51:22;19.10;99.90
8593;DHT22;4334;49.982;8.398;2023-04-29T11:53:50;19.90;99.90
8593;DHT22;4334;49.982;8.398;2023-04-29T11:56:20;23.50;99.90
8593;DHT22;4334;49.982;8.398;2023-04-29T11:58:48;19.80;99.90
8593;DHT22;4334;49.982;8.398;2023-04-29T12:01:15;19.50;99.90
8593;DHT22;4334;49.982;8.398;2023-04-29T12:03:42;19.50;99.90
8593;DHT22;4334;49.982;8.398;2023-04-29T12:06:12;19.60;99.90
8593;DHT22;4334;49.982;8.398;2023-04-29T12:08:40;19.30;99.90
8593;DHT22;4334;49.982;8.398;2023-04-29T12:11:07;19.30;99.90
8593;DHT22;4334;49.982;8.398;2023-04-29T12:13:34;19.30;99.90
8593;DHT22;4334;49.982;8.398;2023-04-29T12:16:01;18.90;99.90
8593;DHT22;4334;49.982;8.398;2023-04-29T12:18:29;18.30;99.90
8593;DHT22;4334;49.982;8.398;2023-04-29T12:20:56;18.20;99.90
8593;DHT22;4334;49.982;8.398;2023-04-29T12:23:24;18.00;99.90
8593;DHT22;4334;49.982;8.398;2023-04-29T12:25:54;17.90;99.90
8593;DHT22;4334;49.982;8.398;2023-04-29T12:28:22;17.70;99.90
8593;DHT22;4334;49.982;8.398;2023-04-29T12:30:50;17.70;99.90
8593;DHT22;4334;49.982;8.398;2023-04-29T12:33:18;17.60;99.90
8593;DHT22;4334;49.982;8.398;2023-04-29T12:35:47;17.50;99.90
8593;DHT22;4334;49.982;8.398;2023-04-29T12:38:21;17.50;99.90
8593;DHT22;4334;49.982;8.398;2023-04-29T12:40:49;17.30;99.90
8593;DHT22;4334;49.982;8.398;2023-04-29T12:43:16;17.10;99.90
8593;DHT22;4334;49.982;8.398;2023-04-29T12:45:43;17.20;99.90
8593;DHT22;4334;49.982;8.398;2023-04-29T12:48:11;17.30;99.90
8593;DHT22;4334;49.982;8.398;2023-04-29T12:50:38;17.10;99.90
8593;DHT22;4334;49.982;8.398;2023-04-29T12:53:06;16.90;99.90
8593;DHT22;4334;49.982;8.398;2023-04-29T12:55:34;16.60;99.90
8593;DHT22;4334;49.982;8.398;2023-04-29T12:58:02;16.40;99.90
8593;DHT22;4334;49.982;8.398;2023-04-29T13:00:29;16.20;99.90
8593;DHT22;4334;49.982;8.398;2023-04-29T13:02:56;16.20;99.90
8593;DHT22;4334;49.982;8.398;2023-04-29T13:05:23;16.10;99.90
8593;DHT22;4334;49.982;8.398;2023-04-29T13:07:50;16.30;99.90
8593;DHT22;4334;49.982;8.398;2023-04-29T13:10:16;16.40;99.90
8593;DHT22;4334;49.982;8.398;2023-04-29T13:12:43;17.30;99.90
8593;DHT22;4334;49.982;8.398;2023-04-29T13:15:11;18.80;99.90
8593;DHT22;4334;49.982;8.398;2023-04-29T13:17:38;16.80;99.90
8593;DHT22;4334;49.982;8.398;2023-04-29T13:20:06;17.00;99.90
8593;DHT22;4334;49.982;8.398;2023-04-29T13:22:34;16.80;99.90
8593;DHT22;4334;49.982;8.398;2023-04-29T13:25:01;16.60;99.90
8593;DHT22;4334;49.982;8.398;2023-04-29T13:27:29;16.50;99.90
8593;DHT22;4334;49.982;8.398;2023-04-29T13:29:55;16.60;99.90
8593;DHT22;4334;49.982;8.398;2023-04-29T13:32:24;17.00;99.90
8593;DHT22;4334;49.982;8.398;2023-04-29T13:34:50;17.10;99.90
8593;DHT22;4334;49.982;8.398;2023-04-29T13:37:17;17.40;99.90
8593;DHT22;4334;49.982;8.398;2023-04-29T13:39:45;17.50;99.90
8593;DHT22;4334;49.982;8.398;2023-04-29T13:42:11;17.60;99.90
8593;DHT22;4334;49.982;8.398;2023-04-29T13:44:38;17.80;99.90
8593;DHT22;4334;49.982;8.398;2023-04-29T13:47:09;17.60;99.90
8593;DHT22;4334;49.982;8.398;2023-04-29T13:49:38;17.60;99.90
8593;DHT22;4334;49.982;8.398;2023-04-29T13:52:05;17.10;99.90
8593;DHT22;4334;49.982;8.398;2023-04-29T13:54:31;16.80;99.90
8593;DHT22;4334;49.982;8.398;2023-04-29T13:56:58;16.90;99.90
8593;DHT22;4334;49.982;8.398;2023-04-29T13:59:25;17.00;99.90
8593;DHT22;4334;49.982;8.398;2023-04-29T14:01:53;17.00;99.90
8593;DHT22;4334;49.982;8.398;2023-04-29T14:04:19;16.30;99.90
8593;DHT22;4334;49.982;8.398;2023-04-29T14:06:47;16.20;99.90
8593;DHT22;4334;49.982;8.398;2023-04-29T14:09:14;16.00;99.90
8593;DHT22;4334;49.982;8.398;2023-04-29T14:11:41;16.00;99.90
8593;DHT22;4334;49.982;8.398;2023-04-29T14:14:08;16.20;99.90
8593;DHT22;4334;49.982;8.398;2023-04-29T14:16:35;19.80;99.90
8593;DHT22;4334;49.982;8.398;2023-04-29T14:19:02;16.10;99.90
8593;DHT22;4334;49.982;8.398;2023-04-29T14:21:28;16.10;99.90
8593;DHT22;4334;49.982;8.398;2023-04-29T14:23:59;16.10;99.90
8593;DHT22;4334;49.982;8.398;2023-04-29T14:26:26;16.30;99.90
8593;DHT22;4334;49.982;8.398;2023-04-29T14:28:53;16.40;99.90
8593;DHT22;4334;49.982;8.398;2023-04-29T14:31:22;16.40;99.90
8593;DHT22;4334;49.982;8.398;2023-04-29T14:33:49;16.40;99.90
8593;DHT22;4334;49.982;8.398;2023-04-29T14:36:16;16.40;99.90
8593;DHT22;4334;49.982;8.398;2023-04-29T14:38:43;19.60;99.90
8593;DHT22;4334;49.982;8.398;2023-04-29T14:41:11;16.30;99.90
8593;DHT22;4334;49.982;8.398;2023-04-29T14:43:38;16.30;99.90
8593;DHT22;4334;49.982;8.398;2023-04-29T14:46:05;16.50;99.90
8593;DHT22;4334;49.982;8.398;2023-04-29T14:48:32;16.90;99.90
8593;DHT22;4334;49.982;8.398;2023-04-29T14:50:59;16.80;99.90
8593;DHT22;4334;49.982;8.398;2023-04-29T14:53:26;16.80;99.90
8593;DHT22;4334;49.982;8.398;2023-04-29T14:55:52;17.00;99.90
8593;DHT22;4334;49.982;8.398;2023-04-29T14:58:21;16.40;99.90
8593;DHT22;4334;49.982;8.398;2023-04-29T15:00:48;16.30;99.90
8593;DHT22;4334;49.982;8.398;2023-04-29T15:03:15;16.30;99.90
8593;DHT22;4334;49.982;8.398;2023-04-29T15:05:42;16.50;99.90
8593;DHT22;4334;49.982;8.398;2023-04-29T15:08:09;17.50;99.90
8593;DHT22;4334;49.982;8.398;2023-04-29T15:10:35;16.40;99.90
8593;DHT22;4334;49.982;8.398;2023-04-29T15:13:02;16.30;99.90
8593;DHT22;4334;49.982;8.398;2023-04-29T15:15:30;16.30;99.90
8593;DHT22;4334;49.982;8.398;2023-04-29T15:17:57;16.30;99.90
8593;DHT22;4334;49.982;8.398;2023-04-29T15:20:23;20.70;99.90
8593;DHT22;4334;49.982;8.398;2023-04-29T15:22:50;16.20;99.90
8593;DHT22;4334;49.982;8.398;2023-04-29T15:25:17;16.10;99.90
8593;DHT22;4334;49.982;8.398;2023-04-29T15:27:44;16.10;99.90
8593;DHT22;4334;49.982;8.398;2023-04-29T15:30:12;16.00;99.90
8593;DHT22;4334;49.982;8.398;2023-04-29T15:32:40;16.00;99.90
8593;DHT22;4334;49.982;8.398;2023-04-29T15:35:07;15.70;99.90
8593;DHT22;4334;49.982;8.398;2023-04-29T15:37:34;15.60;99.90
8593;DHT22;4334;49.982;8.398;2023-04-29T15:40:01;15.60;99.90
8593;DHT22;4334;49.982;8.398;2023-04-29T15:42:29;15.70;99.90
8593;DHT22;4334;49.982;8.398;2023-04-29T15:44:56;15.90;99.90
8593;DHT22;4334;49.982;8.398;2023-04-29T15:47:22;15.90;99.90
8593;DHT22;4334;49.982;8.398;2023-04-29T15:49:50;15.90;99.90
8593;DHT22;4334;49.982;8.398;2023-04-29T15:52:17;15.90;99.90
8593;DHT22;4334;49.982;8.398;2023-04-29T15:54:44;15.80;99.90
8593;DHT22;4334;49.982;8.398;2023-04-29T15:57:11;15.70;99.90
8593;DHT22;4334;49.982;8.398;2023-04-29T15:59:37;15.80;99.90
8593;DHT22;4334;49.982;8.398;2023-04-29T16:02:04;15.90;99.90
8593;DHT22;4334;49.982;8.398;2023-04-29T16:04:35;15.80;99.90
8593;DHT22;4334;49.982;8.398;2023-04-29T16:07:03;15.80;99.90
8593;DHT22;4334;49.982;8.398;2023-04-29T16:09:30;15.70;99.90
8593;DHT22;4334;49.982;8.398;2023-04-29T16:11:57;15.80;99.90
8593;DHT22;4334;49.982;8.398;2023-04-29T16:14:23;15.80;99.90
8593;DHT22;4334;49.982;8.398;2023-04-29T16:16:50;15.80;99.90